createdAt,value
2023-05-14T00:00:35.599Z,58
2023-05-14T00:20:35.604Z,59
2023-05-14T00:40:38.629Z,58
2023-05-14T01:00:34.993Z,58
2023-05-14T01:20:38.135Z,57
2023-05-14T01:40:35.797Z,58
2023-05-14T02:00:35.322Z,58
2023-05-14T02:20:35.836Z,57
2023-05-14T02:40:35.590Z,57
2023-05-14T03:00:39.722Z,56
2023-05-14T03:20:36.810Z,57
2023-05-14T03:40:37.092Z,57
2023-05-14T04:00:38.694Z,57
2023-05-14T04:20:53.845Z,57
2023-05-14T04:40:54.589Z,57
2023-05-14T05:00:53.939Z,56
2023-05-14T05:20:53.360Z,56
2023-05-14T05:40:51.725Z,56
2023-05-14T06:00:54.952Z,57
2023-05-14T06:20:56.472Z,58
2023-05-14T06:40:52.003Z,57
2023-05-14T07:01:00.792Z,60
2023-05-14T07:20:53.795Z,61
2023-05-14T07:40:53.921Z,60
2023-05-14T08:00:58.675Z,60
2023-05-14T08:20:52.877Z,61
2023-05-14T08:40:51.117Z,61
2023-05-14T09:00:52.944Z,61
2023-05-14T09:20:54.058Z,60
2023-05-14T09:40:52.476Z,60
2023-05-14T10:00:50.024Z,60
2023-05-14T10:20:56.244Z,58
2023-05-14T10:40:54.504Z,59
2023-05-14T11:00:53.484Z,58
2023-05-14T11:20:58.069Z,56
2023-05-14T11:40:53.535Z,57
2023-05-14T12:00:56.610Z,56
2023-05-14T12:20:55.044Z,56
2023-05-14T12:40:53.166Z,56
2023-05-14T13:00:51.439Z,56
2023-05-14T13:20:59.131Z,55
2023-05-14T13:40:56.423Z,55
2023-05-14T14:00:54.616Z,55
2023-05-14T14:20:53.874Z,54
2023-05-14T14:40:52.822Z,57
2023-05-14T15:00:54.171Z,57
2023-05-14T15:20:53.109Z,58
2023-05-14T15:40:52.977Z,58
2023-05-14T16:00:54.534Z,57
2023-05-14T16:20:53.228Z,58
2023-05-14T16:40:53.198Z,58
2023-05-14T17:00:54.326Z,59
2023-05-14T17:20:55.538Z,60
2023-05-14T17:40:53.039Z,60
2023-05-14T18:00:53.503Z,60
2023-05-14T18:20:52.613Z,61
2023-05-14T18:40:52.275Z,60
2023-05-14T19:00:34.583Z,61
2023-05-14T19:20:35.537Z,61
2023-05-14T19:40:35.044Z,61
2023-05-14T20:00:35.378Z,60
2023-05-14T20:20:41.411Z,60
2023-05-14T20:40:35.204Z,60
2023-05-14T21:00:35.388Z,60
2023-05-14T21:20:35.466Z,60
2023-05-14T21:40:38.457Z,60
2023-05-14T22:00:44.325Z,60
2023-05-14T22:20:36.663Z,59
2023-05-14T22:40:35.498Z,59
2023-05-14T23:00:36.084Z,60
2023-05-14T23:20:37.299Z,59
2023-05-14T23:40:36.020Z,59
